Time;durP1;ratioP1;P1;durP2;ratioP2;P2;SDS_P1;SDS_P2;PMS_P1;PMS_P2;Temp;Humidity;BMP_temperature;BMP_pressure;BME280_temperature;BME280_humidity;BME280_pressure;Samples;Min_cycle;Max_cycle;Signal;HPM_P1;HPM_P2
2021/11/16 05:46:40;;;;;;;69.88;27.55;;;;;;;4.13;84.51;101183.09;5025000;28;105968;-66
2021/11/16 05:49:06;;;;;;;90.57;32.35;;;;;;;4.17;84.60;101173.16;5025597;27;105757;-67
2021/11/16 05:51:31;;;;;;;82.15;28.25;;;;;;;4.22;84.69;101179.84;5024869;27;105756;-67
2021/11/16 05:54:02;;;;;;;85.22;31.67;;;;;;;4.28;84.55;101170.66;5005768;28;106117;-66
2021/11/16 05:56:32;;;;;;;82.15;33.53;;;;;;;4.34;84.45;101180.75;5004636;28;105914;-68
2021/11/16 05:58:58;;;;;;;82.30;27.20;;;;;;;4.40;84.80;101175.09;5004741;28;105960;-68
2021/11/16 06:01:29;;;;;;;66.93;25.17;;;;;;;4.45;84.87;101177.41;5004586;28;106109;-68
2021/11/16 06:03:55;;;;;;;73.03;26.08;;;;;;;4.49;85.04;101172.75;5004088;28;106184;-68
2021/11/16 06:06:29;;;;;;;65.60;25.52;;;;;;;4.52;85.04;101167.25;5002300;28;106186;-66
2021/11/16 06:08:56;;;;;;;81.40;29.50;;;;;;;4.54;84.87;101166.22;5003810;28;105966;-67
2021/11/16 06:11:23;;;;;;;80.65;27.70;;;;;;;4.58;84.95;101170.31;5004152;28;106167;-68
2021/11/16 06:13:50;;;;;;;62.75;24.17;;;;;;;4.64;85.12;101169.03;5002087;28;106404;-67
2021/11/16 06:16:16;;;;;;;75.80;26.70;;;;;;;4.70;85.08;101173.91;5003091;28;106058;-66
2021/11/16 06:18:47;;;;;;;70.10;26.75;;;;;;;4.72;84.67;101177.25;5004277;28;105870;-65
2021/11/16 06:21:12;;;;;;;69.00;28.33;;;;;;;4.75;84.90;101184.97;5004496;28;106059;-67
2021/11/16 06:23:38;;;;;;;76.68;28.10;;;;;;;4.77;84.51;101179.59;5004360;28;106335;-69
2021/11/16 06:26:04;;;;;;;70.30;27.90;;;;;;;4.80;84.75;101176.72;5003908;28;106304;-69
2021/11/16 06:28:30;;;;;;;79.18;28.45;;;;;;;4.83;84.71;101183.59;5004967;28;106046;-70
2021/11/16 06:30:55;;;;;;;74.05;28.23;;;;;;;4.85;84.78;101179.91;5003985;28;106157;-68
2021/11/16 06:33:23;;;;;;;78.22;30.60;;;;;;;4.89;84.92;101180.50;5002661;28;107464;-70
2021/11/16 06:35:49;;;;;;;72.63;29.25;;;;;;;4.91;84.82;101190.00;5003410;28;106200;-68
2021/11/16 06:38:14;;;;;;;83.43;29.15;;;;;;;4.91;84.59;101189.19;5004535;28;105880;-68
2021/11/16 06:40:47;;;;;;;73.38;28.77;;;;;;;4.91;84.73;101189.19;5003910;28;106261;-68
2021/11/16 06:43:22;;;;;;;62.25;25.80;;;;;;;4.95;84.61;101190.66;4988752;28;105875;-66
2021/11/16 06:45:57;;;;;;;68.95;27.95;;;;;;;4.94;84.84;101193.41;4982666;28;106826;-67
2021/11/16 06:48:23;;;;;;;65.32;27.38;;;;;;;4.95;84.75;101201.22;4992016;28;105995;-66
2021/11/16 06:50:50;;;;;;;58.53;23.45;;;;;;;4.94;84.55;101196.88;5003211;28;106216;-68
2021/11/16 06:53:45;;;;;;;75.03;28.00;;;;;;;4.92;84.52;101196.13;5001290;28;105876;-67
2021/11/16 06:56:10;;;;;;;67.32;25.95;;;;;;;4.90;84.65;101190.13;4994709;28;106096;-66
2021/11/16 06:58:36;;;;;;;66.22;23.27;;;;;;;4.88;84.38;101190.22;4990759;28;105889;-66
2021/11/16 07:01:04;;;;;;;67.13;25.33;;;;;;;4.89;84.44;101194.56;4990344;28;106227;-67
2021/11/16 07:03:30;;;;;;;65.60;26.33;;;;;;;4.93;84.67;101195.19;4990061;28;105922;-66
2021/11/16 07:05:57;;;;;;;74.45;28.02;;;;;;;4.92;84.45;101201.41;4989534;28;106118;-65
2021/11/16 07:08:41;;;;;;;58.90;23.48;;;;;;;4.95;84.66;101201.22;4990234;28;105770;-66
2021/11/16 07:11:12;;;;;;;71.93;26.00;;;;;;;4.96;84.68;101202.91;4990021;28;106261;-66
2021/11/16 07:13:59;;;;;;;40.25;16.35;;;;;;;5.00;84.65;101204.38;4981381;28;105962;-67
2021/11/16 07:16:26;;;;;;;62.67;23.20;;;;;;;4.98;84.31;101206.25;4969825;28;106009;-66
2021/11/16 07:18:53;;;;;;;47.00;18.73;;;;;;;4.96;84.41;101200.25;4970518;28;106048;-68
2021/11/16 07:21:20;;;;;;;55.78;23.70;;;;;;;4.93;84.05;101186.41;4970182;28;106255;-68
2021/11/16 07:24:00;;;;;;;67.57;24.60;;;;;;;4.95;84.38;101180.09;4969323;28;105909;-67
2021/11/16 07:26:25;;;;;;;55.58;23.58;;;;;;;4.96;84.43;101181.78;4969188;28;106110;-67
2021/11/16 07:28:51;;;;;;;53.08;21.17;;;;;;;4.99;84.50;101181.56;4969995;28;105955;-67
2021/11/16 07:31:20;;;;;;;61.28;22.50;;;;;;;5.01;84.58;101190.19;4969804;28;106215;-68
2021/11/16 07:33:45;;;;;;;63.25;24.30;;;;;;;5.01;84.13;101182.25;4969110;28;106092;-69
2021/11/16 07:36:11;;;;;;;64.82;25.58;;;;;;;5.04;84.15;101181.22;4968084;28;107796;-71
2021/11/16 07:38:36;;;;;;;59.70;24.83;;;;;;;5.07;84.34;101184.47;4970240;28;106001;-71
2021/11/16 07:41:04;;;;;;;63.00;24.05;;;;;;;5.09;84.10;101184.38;4969900;28;106040;-68
2021/11/16 07:43:29;;;;;;;63.53;23.42;;;;;;;5.08;84.39;101191.47;4986011;28;106219;-70
2021/11/16 07:45:56;;;;;;;54.17;22.25;;;;;;;5.09;83.96;101195.78;4953431;27;106419;-71
2021/11/16 07:48:23;;;;;;;63.75;25.40;;;;;;;5.10;84.09;101191.34;4981326;28;106363;-71
2021/11/16 07:50:53;;;;;;;64.25;23.33;;;;;;;5.09;83.85;101197.56;4969505;28;106232;-71
2021/11/16 07:53:30;;;;;;;54.88;21.88;;;;;;;5.11;84.04;101181.63;4969402;28;106362;-70
2021/11/16 07:56:00;;;;;;;71.88;25.98;;;;;;;5.13;84.23;101182.38;4968829;28;106091;-69
2021/11/16 07:58:34;;;;;;;59.90;23.90;;;;;;;5.15;83.94;101180.44;4969875;28;106136;-72
2021/11/16 08:01:14;;;;;;;50.33;20.95;;;;;;;5.17;83.93;101181.19;4969596;28;105782;-69
2021/11/16 08:03:44;;;;;;;66.28;24.13;;;;;;;5.23;84.12;101172.81;4969180;28;106063;-71
2021/11/16 08:06:22;;;;;;;66.05;25.65;;;;;;;5.31;84.28;101175.72;4968749;28;105804;-71
2021/11/16 08:11:29;;;;;;;68.40;27.05;;;;;;;5.45;83.93;101172.06;4969428;28;106012;-69
2021/11/16 08:13:56;;;;;;;61.35;23.85;;;;;;;5.50;83.82;101169.94;4969087;28;106016;-71
2021/11/16 08:16:26;;;;;;;39.10;17.17;;;;;;;5.55;83.45;101172.22;4968786;28;106273;-71
2021/11/16 08:18:58;;;;;;;61.47;23.83;;;;;;;5.56;83.54;101173.94;4970007;28;106267;-68
2021/11/16 08:21:25;;;;;;;59.13;22.60;;;;;;;5.50;83.09;101162.00;4969197;28;105976;-69
2021/11/16 08:23:58;;;;;;;59.05;24.27;;;;;;;5.47;82.88;101166.66;4968488;28;106064;-68
2021/11/16 08:26:31;;;;;;;47.25;19.88;;;;;;;5.38;82.89;101166.38;4968601;28;106031;-69
2021/11/16 08:28:57;;;;;;;50.92;20.65;;;;;;;5.38;83.20;101176.97;4969560;28;106074;-68
2021/11/16 08:31:24;;;;;;;65.68;21.77;;;;;;;5.35;83.02;101163.97;4968855;28;106660;-68
2021/11/16 08:33:52;;;;;;;60.95;21.42;;;;;;;5.35;83.27;101157.88;4968378;28;105860;-68
2021/11/16 08:36:24;;;;;;;58.78;22.67;;;;;;;5.40;83.00;101155.72;4968072;28;106147;-67
2021/11/16 08:38:50;;;;;;;51.58;19.13;;;;;;;5.43;82.87;101150.22;4969066;28;106038;-68
2021/11/16 08:41:29;;;;;;;51.47;20.35;;;;;;;5.51;82.84;101145.22;4968678;28;106223;-68
2021/11/16 08:44:08;;;;;;;40.92;18.10;;;;;;;5.75;83.34;101146.97;4967309;28;106027;-67
2021/11/16 08:46:34;;;;;;;55.70;21.80;;;;;;;5.83;83.11;101141.09;4968059;28;105942;-67
2021/11/16 08:48:59;;;;;;;53.33;20.58;;;;;;;5.89;83.30;101132.69;4968758;28;105977;-68
2021/11/16 08:51:27;;;;;;;50.15;20.13;;;;;;;5.90;82.88;101137.84;4979038;28;106111;-69
2021/11/16 08:53:52;;;;;;;50.22;18.75;;;;;;;5.93;82.63;101134.16;4987297;28;106825;-67
2021/11/16 08:56:27;;;;;;;45.58;19.67;;;;;;;5.97;82.83;101138.25;4988123;28;105989;-68
2021/11/16 08:58:53;;;;;;;48.78;19.80;;;;;;;6.00;82.77;101140.72;4988960;28;105960;-68
2021/11/16 09:01:19;;;;;;;54.95;21.52;;;;;;;6.05;82.36;101138.53;4988011;28;106205;-68
2021/11/16 09:03:47;;;;;;;40.78;16.73;;;;;;;6.04;82.12;101147.44;4987931;28;106502;-68
2021/11/16 09:06:22;;;;;;;48.20;19.10;;;;;;;5.98;81.71;101142.59;4987980;28;105955;-68
2021/11/16 09:09:00;;;;;;;41.80;19.42;;;;;;;5.95;82.19;101142.81;4988879;28;106129;-69
2021/11/16 09:11:26;;;;;;;48.05;20.02;;;;;;;5.94;82.07;101133.19;4987533;28;106240;-71
2021/11/16 09:13:52;;;;;;;45.88;19.48;;;;;;;5.95;82.02;101132.25;4987703;28;106223;-69
2021/11/16 09:16:20;;;;;;;33.78;14.32;;;;;;;5.91;81.86;101139.56;4987983;28;106313;-70
2021/11/16 09:18:48;;;;;;;50.38;21.23;;;;;;;5.86;81.85;101132.94;4988372;28;105786;-68
2021/11/16 09:21:19;;;;;;;43.28;18.17;;;;;;;5.87;82.18;101137.28;4987624;28;106620;-68
2021/11/16 09:23:49;;;;;;;47.55;19.88;;;;;;;5.86;81.64;101148.81;4987444;28;106212;-69
2021/11/16 09:28:59;;;;;;;52.85;23.25;;;;;;;5.87;82.11;101135.47;4985259;28;105850;-68
2021/11/16 09:31:27;;;;;;;45.38;17.40;;;;;;;6.04;82.48;101136.88;4988064;28;106089;-68
2021/11/16 09:33:55;;;;;;;65.47;25.17;;;;;;;6.25;82.65;101131.72;4987497;28;106467;-69
2021/11/16 09:36:34;;;;;;;65.40;24.25;;;;;;;6.33;82.42;101127.63;4987616;28;105850;-69
2021/11/16 09:39:07;;;;;;;57.72;22.27;;;;;;;6.39;81.88;101130.63;4987879;28;106186;-69
2021/11/16 09:41:36;;;;;;;48.58;20.58;;;;;;;6.46;81.42;101125.69;4987398;28;106414;-68
2021/11/16 09:44:05;;;;;;;56.95;22.08;;;;;;;6.49;81.78;101127.28;4987006;28;106751;-69
2021/11/16 09:46:32;;;;;;;57.97;23.48;;;;;;;6.57;81.37;101130.16;4986245;28;105852;-69
2021/11/16 09:49:03;;;;;;;64.30;23.70;;;;;;;6.56;81.19;101117.88;4987554;28;106516;-68
2021/11/16 09:51:30;;;;;;;57.05;24.33;;;;;;;6.49;81.57;101125.44;4987015;28;107152;-68
2021/11/16 09:54:02;;;;;;;65.45;25.35;;;;;;;6.46;81.24;101115.13;4986661;28;106470;-68
2021/11/16 09:56:29;;;;;;;57.35;22.08;;;;;;;6.45;81.32;101108.13;4986986;28;105983;-68
2021/11/16 09:58:56;;;;;;;43.33;18.45;;;;;;;6.49;81.30;101114.03;4987457;28;106101;-67
2021/11/16 10:01:32;;;;;;;59.92;25.00;;;;;;;6.43;80.50;101110.91;4987126;28;105783;-68
2021/11/16 10:04:16;;;;;;;63.05;24.95;;;;;;;6.43;80.93;101116.19;4986561;28;106464;-66
2021/11/16 10:06:42;;;;;;;51.72;20.63;;;;;;;6.46;80.83;101101.03;4987010;28;106036;-67
2021/11/16 10:09:09;;;;;;;63.80;25.08;;;;;;;6.51;80.95;101101.53;4987375;28;105921;-67
2021/11/16 10:11:40;;;;;;;71.07;27.63;;;;;;;6.46;80.36;101093.94;4987517;28;106204;-67
2021/11/16 10:14:08;;;;;;;62.92;26.17;;;;;;;6.44;80.89;101099.34;4986640;28;106987;-69
2021/11/16 10:16:34;;;;;;;70.60;27.63;;;;;;;6.36;80.33;101103.59;4986745;28;106088;-66
2021/11/16 10:18:59;;;;;;;56.92;23.77;;;;;;;6.32;80.51;101097.69;4987631;28;106319;-67
2021/11/16 10:21:25;;;;;;;59.40;25.27;;;;;;;6.35;81.10;101097.44;4987372;28;106213;-66
2021/11/16 10:23:54;;;;;;;55.65;23.70;;;;;;;6.41;81.17;101091.66;4986733;28;106131;-66
2021/11/16 10:26:20;;;;;;;66.45;27.20;;;;;;;6.39;80.76;101083.00;4986561;28;105935;-69
2021/11/16 10:28:48;;;;;;;54.10;21.90;;;;;;;6.44;80.85;101080.00;4987462;28;105794;-67
2021/11/16 10:31:25;;;;;;;51.80;23.80;;;;;;;6.36;80.61;101072.66;4986853;28;106486;-67
2021/11/16 10:33:54;;;;;;;59.88;24.13;;;;;;;6.37;80.96;101074.34;4990347;28;106743;-67
2021/11/16 10:36:20;;;;;;;59.40;23.38;;;;;;;6.36;80.73;101067.34;4988499;28;106145;-67
2021/11/16 10:38:47;;;;;;;48.25;23.23;;;;;;;6.39;80.61;101072.41;4991013;28;106347;-67
2021/11/16 10:41:24;;;;;;;50.83;23.60;;;;;;;6.55;80.94;101065.91;4990110;28;106895;-69
2021/11/16 10:43:59;;;;;;;70.78;32.50;;;;;;;6.68;80.81;101066.59;4989942;28;106867;-68
2021/11/16 10:46:37;;;;;;;51.60;21.42;;;;;;;6.75;80.53;101073.09;4989616;28;106029;-70
2021/11/16 10:49:12;;;;;;;61.90;27.90;;;;;;;6.77;80.33;101070.31;4990752;28;105845;-69
2021/11/16 10:51:39;;;;;;;54.17;23.90;;;;;;;6.84;80.34;101060.06;4990151;28;105892;-68
2021/11/16 10:54:06;;;;;;;54.13;24.23;;;;;;;6.84;79.67;101060.06;4989879;28;106063;-67
2021/11/16 10:56:34;;;;;;;45.53;22.85;;;;;;;6.77;80.10;101052.59;4989408;28;106081;-67
2021/11/16 10:59:15;;;;;;;55.35;22.95;;;;;;;6.71;79.87;101057.56;4990646;28;105998;-68
2021/11/16 11:01:49;;;;;;;28.30;14.95;;;;;;;6.83;80.41;101061.03;4989805;28;105786;-69
2021/11/16 11:04:20;;;;;;;55.80;23.50;;;;;;;6.74;79.89;101050.22;4989817;28;105817;-69
2021/11/16 11:06:49;;;;;;;60.90;24.75;;;;;;;6.62;79.69;101043.28;4989489;28;106396;-68
2021/11/16 11:09:15;;;;;;;52.95;25.48;;;;;;;6.60;80.02;101045.19;4989669;28;105812;-68
2021/11/16 11:11:43;;;;;;;66.65;30.33;;;;;;;6.71;80.59;101039.03;4989959;28;105912;-65
2021/11/16 11:14:17;;;;;;;61.25;25.95;;;;;;;6.78;79.96;101040.22;4989569;28;106052;-66
2021/11/16 11:16:48;;;;;;;62.80;27.70;;;;;;;6.74;80.28;101025.56;4989222;28;106458;-66
2021/11/16 11:19:18;;;;;;;64.18;28.40;;;;;;;6.74;80.02;101025.56;4990033;28;106161;-68
2021/11/16 11:21:52;;;;;;;57.37;23.70;;;;;;;6.73;79.45;101019.41;4989495;28;106210;-70
2021/11/16 11:24:22;;;;;;;57.72;25.80;;;;;;;6.72;79.92;101015.06;4989011;28;106688;-66
2021/11/16 11:26:57;;;;;;;;;;;;;;;6.65;79.85;101013.88;4989564;28;105949;-67
2021/11/16 11:32:11;;;;;;;59.13;26.52;;;;;;;7.08;80.43;101015.66;4986665;28;105963;-69
2021/11/16 11:34:41;;;;;;;55.25;26.40;;;;;;;7.19;79.88;101024.53;4988787;28;107157;-67
2021/11/16 11:37:12;;;;;;;53.33;27.17;;;;;;;7.09;79.49;101024.44;4989207;28;106162;-67
2021/11/16 11:39:38;;;;;;;59.15;25.08;;;;;;;6.98;78.29;101009.44;4989985;28;106022;-66
2021/11/16 11:42:08;;;;;;;56.05;25.42;;;;;;;6.98;79.08;101014.75;4989600;28;105961;-66
2021/11/16 11:44:44;;;;;;;55.47;25.75;;;;;;;7.02;79.00;101000.28;4989115;28;106298;-79
2021/11/16 11:47:09;;;;;;;52.72;25.27;;;;;;;6.99;78.42;101005.84;4989465;28;105994;-74
2021/11/16 11:49:36;;;;;;;55.38;26.13;;;;;;;7.02;79.17;101005.56;4990057;28;106074;-70
2021/11/16 11:52:04;;;;;;;55.22;26.02;;;;;;;7.13;79.08;100995.91;4989437;28;106867;-71
2021/11/16 11:54:30;;;;;;;46.80;22.35;;;;;;;7.26;78.39;100988.63;4989514;28;106011;-69
2021/11/16 11:56:55;;;;;;;51.30;24.50;;;;;;;7.61;79.32;100976.81;4989003;28;106250;-69
2021/11/16 11:59:25;;;;;;;58.00;26.90;;;;;;;7.91;78.70;100975.13;4989814;28;105937;-70
2021/11/16 12:01:52;;;;;;;53.20;24.65;;;;;;;8.05;78.33;100974.78;4988989;28;106295;-73
2021/11/16 12:04:19;;;;;;;52.60;26.23;;;;;;;8.48;78.82;100974.63;4989032;28;106190;-72
2021/11/16 12:06:47;;;;;;;56.38;23.20;;;;;;;8.54;76.50;100966.09;4988651;28;106497;-72
2021/11/16 12:09:15;;;;;;;51.78;28.60;;;;;;;8.59;76.58;100972.69;4988817;28;106288;-68
2021/11/16 12:11:41;;;;;;;51.20;25.27;;;;;;;8.76;76.60;100971.16;4989047;28;106214;-69
2021/11/16 12:14:29;;;;;;;61.92;28.23;;;;;;;9.17;77.55;100964.84;4988586;28;105849;-70
2021/11/16 12:17:01;;;;;;;47.60;23.98;;;;;;;10.06;76.00;100959.13;4988776;28;106055;-69
2021/11/16 12:19:41;;;;;;;58.30;27.55;;;;;;;10.16;75.05;100951.91;4989077;28;106144;-68
2021/11/16 12:22:13;;;;;;;51.30;27.75;;;;;;;10.49;73.07;100946.13;4988549;28;106060;-70
2021/11/16 12:24:38;;;;;;;66.43;31.10;;;;;;;10.54;73.19;100950.97;4988387;28;106554;-68
2021/11/16 12:27:07;;;;;;;49.90;25.08;;;;;;;10.03;72.14;100942.59;4988117;28;105867;-69
2021/11/16 12:29:45;;;;;;;48.17;24.50;;;;;;;9.63;72.02;100950.72;4988993;28;105915;-68
2021/11/16 12:32:45;;;;;;;66.50;31.60;;;;;;;9.41;73.22;100954.56;4988939;28;105951;-68
2021/11/16 12:35:12;;;;;;;;;;;;;;;9.79;74.29;100942.13;4988517;28;106184;-69
2021/11/16 12:37:46;;;;;;;73.55;36.42;;;;;;;10.38;74.86;100938.34;4988206;28;106183;-71
2021/11/16 12:40:34;;;;;;;67.82;34.15;;;;;;;11.66;75.65;100931.66;4989264;28;105918;-66
2021/11/16 12:43:08;;;;;;;68.88;33.65;;;;;;;13.18;74.34;100921.78;4987074;28;106158;-68
2021/11/16 12:45:43;;;;;;;62.90;33.50;;;;;;;14.56;73.47;100931.28;4988197;28;106617;-70
2021/11/16 12:48:11;;;;;;;61.45;31.83;;;;;;;14.43;69.08;100914.94;4988565;28;106420;-71
2021/11/16 12:50:37;;;;;;;56.38;29.90;;;;;;;14.33;68.65;100919.72;4988502;28;105954;-72
2021/11/16 12:53:04;;;;;;;59.55;32.53;;;;;;;14.16;67.96;100909.09;4988391;28;106136;-71
2021/11/16 12:55:33;;;;;;;63.72;36.40;;;;;;;14.03;67.55;100901.59;4986234;28;106813;-70
2021/11/16 12:58:23;;;;;;;55.70;31.80;;;;;;;13.70;67.44;100895.59;4988057;28;106227;-72
2021/11/16 13:00:49;;;;;;;62.95;33.40;;;;;;;13.46;67.29;100897.31;4989134;28;106107;-69
2021/11/16 13:03:14;;;;;;;62.67;34.85;;;;;;;13.41;67.44;100891.66;4988234;28;106129;-70
2021/11/16 13:05:45;;;;;;;63.55;34.63;;;;;;;13.75;67.81;100885.19;4988035;28;106034;-71
2021/11/16 13:08:12;;;;;;;60.33;33.67;;;;;;;14.00;67.28;100887.75;4987889;28;106246;-71
2021/11/16 13:10:45;;;;;;;59.20;33.20;;;;;;;13.54;65.28;100889.28;4988452;28;106031;-73
2021/11/16 13:13:18;;;;;;;58.75;32.70;;;;;;;12.63;64.19;100899.25;4988083;28;106155;-73
2021/11/16 13:15:47;;;;;;;65.47;35.80;;;;;;;11.76;65.39;100890.69;4987340;28;106957;-72
2021/11/16 13:18:21;;;;;;;58.97;32.47;;;;;;;11.01;65.59;100879.59;4987714;28;106303;-71
2021/11/16 13:20:50;;;;;;;66.97;35.55;;;;;;;10.49;66.89;100882.19;4988179;28;106177;-71
2021/11/16 13:23:21;;;;;;;65.35;31.15;;;;;;;10.15;67.39;100883.66;4987827;28;106470;-71
2021/11/16 13:25:50;;;;;;;57.30;32.60;;;;;;;9.83;67.90;100890.28;4987640;28;107412;-70
2021/11/16 13:31:09;;;;;;;59.60;32.35;;;;;;;9.38;68.55;100880.41;4985676;28;106095;-71
2021/11/16 13:34:01;;;;;;;60.90;33.28;;;;;;;9.19;68.68;100881.31;4988044;28;106134;-72
2021/11/16 13:36:33;;;;;;;60.35;32.72;;;;;;;9.05;69.08;100877.28;4987608;28;106787;-70
2021/11/16 13:39:04;;;;;;;55.33;29.55;;;;;;;8.94;69.56;100877.47;4987510;28;105774;-69
2021/11/16 13:42:07;;;;;;;62.22;31.27;;;;;;;8.92;70.00;100872.28;4987957;28;106388;-71
2021/11/16 13:45:01;;;;;;;54.58;31.70;;;;;;;9.19;70.77;100865.38;4987443;28;106234;-69
2021/11/16 13:50:24;;;;;;;57.33;30.77;;;;;;;13.68;72.84;100855.59;4987442;28;106058;-71
2021/11/16 13:53:02;;;;;;;50.13;27.42;;;;;;;15.90;68.96;100855.47;4987027;28;105957;-71
2021/11/16 13:55:32;;;;;;;52.22;28.25;;;;;;;17.25;66.16;100860.22;4985592;28;105993;-72
2021/11/16 13:58:10;;;;;;;49.42;28.02;;;;;;;17.91;62.81;100857.00;4987001;28;105850;-72
2021/11/16 14:00:39;;;;;;;54.28;28.23;;;;;;;18.29;60.81;100860.19;4977154;28;107506;-73
2021/11/16 14:03:07;;;;;;;55.40;33.13;;;;;;;18.66;58.64;100860.66;4967799;28;105825;-73
2021/11/16 14:05:46;;;;;;;66.88;40.20;;;;;;;18.70;57.75;100859.19;4966430;28;106210;-72
2021/11/16 14:08:15;;;;;;;48.70;27.42;;;;;;;18.67;56.18;100856.91;4994594;28;107555;-74
2021/11/16 14:10:43;;;;;;;46.10;26.70;;;;;;;18.11;55.45;100858.91;5010274;28;106262;-72
2021/11/16 14:13:23;;;;;;;48.88;28.52;;;;;;;17.09;55.64;100847.88;4995237;28;106056;-77
2021/11/16 14:15:57;;;;;;;49.85;28.60;;;;;;;16.09;55.58;100847.84;4981330;28;106122;-74
2021/11/16 14:18:22;;;;;;;45.47;27.50;;;;;;;15.43;56.85;100847.84;4999085;28;106030;-79
2021/11/16 14:20:57;;;;;;;44.58;27.80;;;;;;;14.98;57.39;100845.13;5002085;28;106759;-79
2021/11/16 14:23:26;;;;;;;52.83;31.73;;;;;;;14.33;57.55;100842.81;4998048;28;106634;-79
2021/11/16 14:26:05;;;;;;;45.90;28.92;;;;;;;13.84;58.21;100843.94;5004781;28;106119;-78
2021/11/16 14:28:33;;;;;;;46.90;28.80;;;;;;;13.35;58.20;100838.78;5001319;28;105958;-81
2021/11/16 14:31:27;;;;;;;49.03;29.45;;;;;;;12.61;58.73;100844.28;4995614;28;106010;-77
2021/11/16 14:33:57;;;;;;;50.63;29.60;;;;;;;11.85;60.03;100838.97;4982330;28;105889;-77
2021/11/16 14:36:39;;;;;;;48.70;30.10;;;;;;;11.30;60.25;100842.94;5000076;28;106129;-78
2021/11/16 14:39:09;;;;;;;52.72;30.65;;;;;;;10.84;60.29;100841.34;5006004;28;105900;-79
2021/11/16 14:41:47;;;;;;;55.08;30.80;;;;;;;10.38;61.40;100845.97;4993133;28;106687;-77
2021/11/16 14:44:15;;;;;;;54.78;32.03;;;;;;;9.98;62.43;100833.91;5010542;28;106494;-77
2021/11/16 14:46:55;;;;;;;52.90;32.65;;;;;;;9.62;62.93;100828.50;4997621;28;106180;-76
2021/11/16 14:52:12;;;;;;;55.95;30.85;;;;;;;8.91;63.56;100813.97;4996099;28;105939;-71
2021/11/16 14:54:37;;;;;;;54.92;29.05;;;;;;;8.60;63.95;100811.53;4998985;28;106095;-76
2021/11/16 14:57:03;;;;;;;51.47;29.13;;;;;;;8.33;64.85;100814.88;5005855;28;106331;-75
2021/11/16 14:59:31;;;;;;;51.42;29.02;;;;;;;8.08;65.25;100814.44;4991263;28;107731;-76
2021/11/16 15:01:59;;;;;;;54.63;26.80;;;;;;;7.85;65.49;100822.66;5002859;28;106013;-75
2021/11/16 15:04:37;;;;;;;59.45;30.15;;;;;;;7.60;65.56;100821.34;5000725;28;105879;-72
2021/11/16 15:07:11;;;;;;;57.22;29.70;;;;;;;7.36;66.47;100825.16;4994125;28;106262;-80
2021/11/16 15:09:37;;;;;;;57.10;30.45;;;;;;;7.14;66.46;100826.19;4976852;28;105943;-73
2021/11/16 15:12:14;;;;;;;53.42;29.15;;;;;;;6.92;67.44;100822.72;5001234;28;106217;-75
2021/11/16 15:15:03;;;;;;;54.95;29.92;;;;;;;6.74;67.10;100814.53;5003054;28;105810;-76
2021/11/16 15:17:41;;;;;;;53.95;27.98;;;;;;;6.59;67.64;100819.31;4993201;28;106038;-75
2021/11/16 15:20:15;;;;;;;55.20;29.30;;;;;;;6.47;67.97;100812.41;5001697;28;106633;-75
2021/11/16 15:22:53;;;;;;;70.55;33.45;;;;;;;6.35;68.39;100816.06;4990053;28;107190;-75
2021/11/16 15:25:25;;;;;;;67.85;33.35;;;;;;;6.21;68.63;100811.94;5005715;28;106352;-76
2021/11/16 15:28:05;;;;;;;54.45;30.00;;;;;;;6.07;68.72;100808.59;4993288;28;106083;-76
2021/11/16 15:30:37;;;;;;;68.15;31.02;;;;;;;5.96;69.20;100805.13;4996951;28;106526;-75
2021/11/16 15:33:29;;;;;;;55.70;30.20;;;;;;;5.84;69.39;100804.34;5004523;28;106436;-77
2021/11/16 15:35:57;;;;;;;53.92;29.83;;;;;;;5.75;69.91;100803.25;4981705;28;106261;-75
2021/11/16 15:38:25;;;;;;;61.17;32.35;;;;;;;5.65;70.11;100805.81;4999446;28;105714;-75
2021/11/16 15:41:10;;;;;;;56.53;31.40;;;;;;;5.55;70.12;100810.13;5002899;28;106067;-75
2021/11/16 15:49:21;;;;;;;133.52;64.45;;;;;;;5.35;71.21;100799.34;5005899;28;105871;-75
2021/11/16 15:57:30;;;;;;;77.45;36.33;;;;;;;5.15;71.41;100805.38;5004834;28;106059;-78
2021/11/16 15:59:59;;;;;;;75.28;37.42;;;;;;;5.07;71.79;100798.88;4995654;28;106178;-77
2021/11/16 16:02:27;;;;;;;80.30;38.53;;;;;;;5.00;71.92;100791.56;4998462;28;105913;-76
2021/11/16 16:05:23;;;;;;;70.57;36.70;;;;;;;4.92;72.01;100789.50;4998407;28;106519;-78
2021/11/16 16:08:06;;;;;;;69.53;35.25;;;;;;;4.90;72.25;100797.53;4992977;28;106026;-76
2021/11/16 16:10:39;;;;;;;69.45;36.63;;;;;;;4.88;72.43;100790.69;4989544;28;105910;-76
2021/11/16 17:25:40;;;;;;;88.00;39.05;;;;;;;2.68;74.91;100759.16;5026214;28;106482;-77
2021/11/16 17:28:08;;;;;;;96.85;39.95;;;;;;;2.69;75.49;100755.56;5005690;28;106040;-76
2021/11/16 17:30:33;;;;;;;100.75;42.35;;;;;;;2.74;75.62;100754.41;5023001;28;106248;-74
2021/11/16 17:32:59;;;;;;;93.70;42.80;;;;;;;2.77;75.84;100746.31;5022884;28;106085;-74
2021/11/16 17:35:25;;;;;;;100.95;44.65;;;;;;;2.81;76.27;100740.72;5022515;28;107356;-77
